Time;durP1;ratioP1;P1;durP2;ratioP2;P2;SDS_P1;SDS_P2;PMS_P1;PMS_P2;Temp;Humidity;BMP_temperature;BMP_pressure;BME280_temperature;BME280_humidity;BME280_pressure;Samples;Min_cycle;Max_cycle;Signal;HPM_P1;HPM_P2
2022/09/22 00:01:22;;;;;;;;;;;6.40;99.90;;;;;;5075576;28;19912;-67
2022/09/22 00:03:49;;;;;;;;;;;6.40;99.90;;;;;;5075519;28;19909;-67
2022/09/22 00:06:17;;;;;;;;;;;6.40;99.90;;;;;;5075178;28;19914;-67
2022/09/22 00:08:44;;;;;;;;;;;6.40;99.90;;;;;;5075467;28;19909;-67
2022/09/22 00:11:12;;;;;;;;;;;6.30;99.90;;;;;;5075095;28;19916;-67
2022/09/22 00:13:38;;;;;;;;;;;6.30;99.90;;;;;;5075352;28;19913;-67
2022/09/22 00:16:06;;;;;;;;;;;6.30;99.90;;;;;;5075037;28;19916;-67
2022/09/22 00:18:32;;;;;;;;;;;6.30;99.90;;;;;;5074972;28;20003;-67
2022/09/22 00:20:58;;;;;;;;;;;6.20;99.90;;;;;;5057241;28;19951;-67
2022/09/22 00:23:25;;;;;;;;;;;6.20;99.90;;;;;;5075135;28;19919;-67
2022/09/22 00:25:50;;;;;;;;;;;6.20;99.90;;;;;;5075112;28;19957;-67
2022/09/22 00:28:16;;;;;;;;;;;6.20;99.90;;;;;;5056883;28;20391;-67
2022/09/22 00:30:41;;;;;;;;;;;6.20;99.90;;;;;;5075029;28;19909;-67
2022/09/22 00:33:08;;;;;;;;;;;6.20;99.90;;;;;;5074681;28;19912;-67
2022/09/22 00:35:36;;;;;;;;;;;6.20;99.90;;;;;;5074981;28;19912;-67
2022/09/22 00:38:04;;;;;;;;;;;6.10;99.90;;;;;;5074830;28;20370;-67
2022/09/22 00:40:30;;;;;;;;;;;6.20;99.90;;;;;;5074791;28;19974;-67
2022/09/22 00:43:10;;;;;;;;;;;6.20;99.90;;;;;;5074492;28;19908;-67
2022/09/22 00:45:36;;;;;;;;;;;6.20;99.90;;;;;;5074714;28;19913;-67
2022/09/22 00:48:01;;;;;;;;;;;6.20;99.90;;;;;;5074358;28;20015;-66
2022/09/22 00:50:27;;;;;;;;;;;6.20;99.90;;;;;;5074462;28;19915;-67
2022/09/22 00:52:58;;;;;;;;;;;6.20;99.90;;;;;;5074496;28;19919;-67
2022/09/22 00:55:28;;;;;;;;;;;6.20;99.90;;;;;;5074482;28;20359;-67
2022/09/22 00:57:54;;;;;;;;;;;6.10;99.90;;;;;;5074200;28;19912;-67
2022/09/22 01:00:20;;;;;;;;;;;6.10;99.90;;;;;;5073639;28;19912;-67
2022/09/22 01:02:47;;;;;;;;;;;6.10;99.90;;;;;;5074114;28;19916;-67
2022/09/22 01:05:13;;;;;;;;;;;6.10;99.90;;;;;;5074028;28;19999;-67
2022/09/22 01:07:40;;;;;;;;;;;6.10;99.90;;;;;;5056129;28;19997;-67
2022/09/22 01:10:06;;;;;;;;;;;6.10;99.90;;;;;;5074275;28;20386;-67
2022/09/22 01:12:32;;;;;;;;;;;6.00;99.90;;;;;;5074247;28;19955;-67
2022/09/22 01:15:04;;;;;;;;;;;6.00;99.90;;;;;;5074191;28;19940;-67
2022/09/22 01:17:49;;;;;;;;;;;6.00;99.90;;;;;;5074177;28;20355;-67
2022/09/22 01:20:34;;;;;;;;;;;6.00;99.90;;;;;;5073770;28;19909;-67
2022/09/22 01:23:20;;;;;;;;;;;5.90;99.90;;;;;;5055794;28;19966;-67
2022/09/22 01:26:06;;;;;;;;;;;6.00;99.90;;;;;;5073688;28;20003;-67
2022/09/22 01:28:41;;;;;;;;;;;6.00;99.90;;;;;;5073565;28;19909;-67
2022/09/22 01:31:13;;;;;;;;;;;6.00;99.90;;;;;;5073864;28;19959;-67
2022/09/22 01:33:58;;;;;;;;;;;6.00;99.90;;;;;;5073777;28;19908;-66
2022/09/22 01:36:35;;;;;;;;;;;5.90;99.90;;;;;;5073511;28;19962;-67
2022/09/22 01:39:09;;;;;;;;;;;5.90;99.90;;;;;;5073655;28;20371;-67
2022/09/22 01:44:16;;;;;;;;;;;5.90;99.90;;;;;;5091163;27;19912;-68
2022/09/22 01:46:48;;;;;;;;;;;5.80;99.90;;;;;;5091131;28;19920;-67
2022/09/22 01:49:14;;;;;;;;;;;5.80;99.90;;;;;;5091343;28;19966;-67
2022/09/22 01:51:46;;;;;;;;;;;5.80;99.90;;;;;;5091112;28;19912;-67
2022/09/22 01:54:15;;;;;;;;;;;5.80;99.90;;;;;;5091042;28;19908;-67
2022/09/22 01:56:42;;;;;;;;;;;5.80;99.90;;;;;;5091233;28;19908;-67
2022/09/22 01:59:09;;;;;;;;;;;5.70;99.90;;;;;;5091163;28;19915;-67
2022/09/22 02:01:38;;;;;;;;;;;5.80;99.90;;;;;;5091157;28;19912;-67
2022/09/22 02:04:23;;;;;;;;;;;5.70;99.90;;;;;;5091015;28;19912;-67
2022/09/22 02:06:53;;;;;;;;;;;5.70;99.90;;;;;;5090739;28;19909;-67
2022/09/22 02:09:20;;;;;;;;;;;5.70;99.90;;;;;;5090759;28;19909;-67
2022/09/22 02:11:46;;;;;;;;;;;5.70;99.90;;;;;;5090665;28;19951;-67
2022/09/22 02:14:12;;;;;;;;;;;5.70;99.90;;;;;;5090655;28;19909;-67
2022/09/22 02:16:38;;;;;;;;;;;5.70;99.90;;;;;;5090851;28;19931;-67
2022/09/22 02:19:15;;;;;;;;;;;5.70;99.90;;;;;;5090829;28;20386;-66
2022/09/22 02:21:42;;;;;;;;;;;5.60;99.90;;;;;;5090538;28;19908;-67
2022/09/22 02:24:24;;;;;;;;;;;5.60;99.90;;;;;;5090372;28;19913;-67
2022/09/22 02:26:49;;;;;;;;;;;5.60;99.90;;;;;;5090408;28;20053;-67
2022/09/22 02:29:16;;;;;;;;;;;5.60;99.90;;;;;;5090600;28;20373;-67
2022/09/22 02:31:42;;;;;;;;;;;5.70;99.90;;;;;;5090535;28;19956;-67
2022/09/22 02:34:07;;;;;;;;;;;5.60;99.90;;;;;;5090239;28;19963;-67
2022/09/22 02:36:53;;;;;;;;;;;5.60;99.90;;;;;;5090321;28;19908;-67
2022/09/22 02:39:38;;;;;;;;;;;5.60;99.90;;;;;;5090430;28;20287;-67
2022/09/22 02:42:23;;;;;;;;;;;5.60;99.90;;;;;;5092555;28;20321;-67
2022/09/22 02:45:08;;;;;;;;;;;5.50;99.90;;;;;;5110637;28;19912;-67
2022/09/22 02:47:53;;;;;;;;;;;5.50;99.90;;;;;;5110366;28;19974;-67
2022/09/22 02:50:21;;;;;;;;;;;5.50;99.90;;;;;;5110149;28;19915;-67
2022/09/22 02:52:49;;;;;;;;;;;5.50;99.90;;;;;;5110215;28;19908;-67
2022/09/22 02:55:15;;;;;;;;;;;5.50;99.90;;;;;;5098666;28;20343;-67
2022/09/22 02:57:42;;;;;;;;;;;5.50;99.90;;;;;;5096803;28;19943;-67
2022/09/22 03:00:07;;;;;;;;;;;5.40;99.90;;;;;;5096772;28;19908;-67
2022/09/22 03:02:33;;;;;;;;;;;5.40;99.90;;;;;;5096475;28;19919;-67
2022/09/22 03:04:58;;;;;;;;;;;5.40;99.90;;;;;;5096442;28;19915;-67
2022/09/22 03:07:24;;;;;;;;;;;5.40;99.90;;;;;;5078269;28;20050;-67
2022/09/22 03:09:49;;;;;;;;;;;5.40;99.90;;;;;;5096621;28;19915;-67
2022/09/22 03:12:15;;;;;;;;;;;5.30;99.90;;;;;;5096278;28;19916;-67
2022/09/22 03:14:40;;;;;;;;;;;5.30;99.90;;;;;;5096309;28;20378;-67
2022/09/22 03:17:06;;;;;;;;;;;5.30;99.90;;;;;;5096492;28;19908;-67
2022/09/22 03:19:31;;;;;;;;;;;5.20;99.90;;;;;;5096468;28;20278;-67
2022/09/22 03:21:57;;;;;;;;;;;5.20;99.90;;;;;;5096010;28;19938;-67
2022/09/22 03:24:22;;;;;;;;;;;5.20;99.90;;;;;;5096316;28;19915;-67
2022/09/22 03:26:48;;;;;;;;;;;5.20;99.90;;;;;;5096276;28;19908;-67
2022/09/22 03:29:13;;;;;;;;;;;5.20;99.90;;;;;;5096027;28;20386;-67
2022/09/22 03:31:38;;;;;;;;;;;5.20;99.90;;;;;;5096184;28;20278;-67
2022/09/22 03:34:04;;;;;;;;;;;5.10;99.90;;;;;;5095858;28;19959;-67
2022/09/22 03:36:29;;;;;;;;;;;5.10;99.90;;;;;;5095843;28;19909;-67
2022/09/22 03:38:55;;;;;;;;;;;5.10;99.90;;;;;;5095773;28;19947;-67
2022/09/22 03:41:20;;;;;;;;;;;5.10;99.90;;;;;;5096022;28;19908;-67
2022/09/22 03:43:46;;;;;;;;;;;5.10;99.90;;;;;;5095535;28;20370;-67
2022/09/22 03:46:13;;;;;;;;;;;5.00;99.90;;;;;;5095664;28;19982;-67
2022/09/22 03:48:38;;;;;;;;;;;5.00;99.90;;;;;;5095875;28;20041;-67
2022/09/22 03:51:04;;;;;;;;;;;5.00;99.90;;;;;;5095566;28;19953;-66
2022/09/22 03:53:29;;;;;;;;;;;5.00;99.90;;;;;;5077518;28;19915;-67
2022/09/22 03:56:15;;;;;;;;;;;5.00;99.90;;;;;;5095405;28;19999;-67
2022/09/22 03:58:41;;;;;;;;;;;5.00;99.90;;;;;;5095281;28;19908;-67
2022/09/22 04:01:07;;;;;;;;;;;5.10;99.90;;;;;;5095370;28;19908;-67
2022/09/22 04:03:33;;;;;;;;;;;5.00;99.90;;;;;;5095499;28;19920;-67
2022/09/22 04:05:58;;;;;;;;;;;5.10;99.90;;;;;;5094262;28;20282;-67
2022/09/22 04:08:24;;;;;;;;;;;5.00;99.90;;;;;;5095217;28;19915;-67
2022/09/22 04:10:49;;;;;;;;;;;5.00;99.90;;;;;;5095177;28;19908;-67
2022/09/22 04:13:15;;;;;;;;;;;5.00;99.90;;;;;;5095122;28;19973;-67
2022/09/22 04:15:41;;;;;;;;;;;5.00;99.90;;;;;;5095315;28;19908;-66
2022/09/22 04:18:06;;;;;;;;;;;5.00;99.90;;;;;;5095305;28;19915;-67
2022/09/22 04:20:32;;;;;;;;;;;5.00;99.90;;;;;;5076954;28;19966;-67
2022/09/22 04:22:57;;;;;;;;;;;5.00;99.90;;;;;;5094850;28;19912;-67
2022/09/22 04:25:23;;;;;;;;;;;4.90;99.90;;;;;;5095162;28;19915;-67
2022/09/22 04:27:48;;;;;;;;;;;4.90;99.90;;;;;;5094817;28;19961;-67
2022/09/22 04:30:14;;;;;;;;;;;4.90;99.90;;;;;;5095031;28;19912;-67
2022/09/22 04:32:39;;;;;;;;;;;4.90;99.90;;;;;;5095032;28;19981;-67
2022/09/22 04:35:05;;;;;;;;;;;4.80;99.90;;;;;;5094949;28;19993;-67
2022/09/22 04:37:31;;;;;;;;;;;4.80;99.90;;;;;;5094738;28;19936;-67
2022/09/22 04:39:58;;;;;;;;;;;4.80;99.90;;;;;;5094601;28;20374;-67
2022/09/22 04:42:24;;;;;;;;;;;4.80;99.90;;;;;;5076785;28;19981;-67
2022/09/22 04:44:49;;;;;;;;;;;4.80;99.90;;;;;;5094510;28;19912;-67
2022/09/22 04:47:15;;;;;;;;;;;4.90;99.90;;;;;;5094471;28;19909;-67
2022/09/22 04:49:40;;;;;;;;;;;4.90;99.90;;;;;;5094684;28;19915;-67
2022/09/22 04:52:06;;;;;;;;;;;4.90;99.90;;;;;;5094371;28;19908;-67
2022/09/22 04:54:32;;;;;;;;;;;4.90;99.90;;;;;;5094572;28;19908;-67
2022/09/22 04:56:57;;;;;;;;;;;4.90;99.90;;;;;;5094550;28;19915;-67
2022/09/22 04:59:23;;;;;;;;;;;5.00;99.90;;;;;;5094490;28;19908;-67
2022/09/22 05:01:48;;;;;;;;;;;5.00;99.90;;;;;;5094383;28;20362;-67
2022/09/22 05:04:14;;;;;;;;;;;5.10;99.90;;;;;;5094275;28;19916;-67
2022/09/22 05:06:40;;;;;;;;;;;5.10;99.90;;;;;;5094031;28;20278;-67
2022/09/22 05:09:06;;;;;;;;;;;5.10;99.90;;;;;;5094299;28;19960;-67
2022/09/22 05:11:31;;;;;;;;;;;5.00;99.90;;;;;;5093991;28;20316;-67
2022/09/22 05:13:57;;;;;;;;;;;5.00;99.90;;;;;;5094290;28;19908;-67
2022/09/22 05:16:23;;;;;;;;;;;5.00;99.90;;;;;;5094264;28;20286;-67
2022/09/22 05:18:50;;;;;;;;;;;5.00;99.90;;;;;;5075644;28;19909;-67
2022/09/22 05:21:17;;;;;;;;;;;5.00;99.90;;;;;;5093897;28;19914;-67
2022/09/22 05:23:43;;;;;;;;;;;5.00;99.90;;;;;;5094078;28;19913;-67
2022/09/22 05:26:09;;;;;;;;;;;4.90;99.90;;;;;;5094131;28;19957;-67
2022/09/22 05:28:35;;;;;;;;;;;4.90;99.90;;;;;;5094080;28;20086;-67
2022/09/22 05:31:00;;;;;;;;;;;5.00;99.90;;;;;;5093910;28;19957;-67
2022/09/22 05:33:26;;;;;;;;;;;5.00;99.90;;;;;;5093761;28;20301;-67
2022/09/22 05:35:51;;;;;;;;;;;5.00;99.90;;;;;;5076066;28;19942;-67
2022/09/22 05:38:17;;;;;;;;;;;5.00;99.90;;;;;;5093724;28;19912;-67
2022/09/22 05:40:44;;;;;;;;;;;5.10;99.90;;;;;;5093635;28;19915;-67
2022/09/22 05:43:09;;;;;;;;;;;5.10;99.90;;;;;;5093414;28;19920;-66
2022/09/22 05:45:35;;;;;;;;;;;5.20;99.90;;;;;;5093615;28;19909;-67
2022/09/22 05:48:00;;;;;;;;;;;5.30;99.90;;;;;;5093651;28;20449;-67
2022/09/22 05:50:26;;;;;;;;;;;5.30;99.90;;;;;;5093687;28;20286;-68
2022/09/22 05:53:00;;;;;;;;;;;5.40;99.90;;;;;;5093869;28;20374;-67
2022/09/22 05:55:26;;;;;;;;;;;5.50;99.90;;;;;;5093562;28;19981;-67
2022/09/22 05:57:55;;;;;;;;;;;5.60;99.90;;;;;;5093543;28;19908;-67
2022/09/22 06:00:20;;;;;;;;;;;5.70;99.90;;;;;;5093558;28;19908;-67
2022/09/22 06:02:46;;;;;;;;;;;5.80;99.90;;;;;;5093403;28;19935;-67
2022/09/22 06:05:11;;;;;;;;;;;5.90;99.90;;;;;;5093519;28;19931;-67
2022/09/22 06:07:37;;;;;;;;;;;6.00;99.90;;;;;;5082475;28;19977;-67
2022/09/22 06:10:02;;;;;;;;;;;6.10;99.90;;;;;;5080392;28;19909;-67
2022/09/22 06:12:28;;;;;;;;;;;6.30;99.90;;;;;;5073351;28;19934;-67
2022/09/22 06:14:55;;;;;;;;;;;6.40;99.90;;;;;;5082721;28;20314;-67
2022/09/22 06:17:22;;;;;;;;;;;6.50;99.90;;;;;;5069692;28;19908;-67
2022/09/22 06:19:49;;;;;;;;;;;6.80;99.90;;;;;;5077445;28;19912;-67
2022/09/22 06:22:15;;;;;;;;;;;8.40;99.90;;;;;;5085464;28;19923;-67
2022/09/22 06:24:40;;;;;;;;;;;8.60;99.90;;;;;;5084251;28;19908;-67
2022/09/22 06:27:06;;;;;;;;;;;10.00;99.90;;;;;;5091670;28;20282;-67
2022/09/22 06:29:31;;;;;;;;;;;11.80;99.90;;;;;;5086911;28;20053;-68
2022/09/22 06:31:57;;;;;;;;;;;12.90;99.90;;;;;;5096916;28;19920;-68
2022/09/22 06:34:22;;;;;;;;;;;14.00;99.90;;;;;;5097115;28;19947;-68
2022/09/22 06:36:48;;;;;;;;;;;15.20;99.90;;;;;;5092463;28;19915;-68
2022/09/22 06:39:13;;;;;;;;;;;15.80;99.90;;;;;;5089677;28;19912;-68
2022/09/22 06:41:39;;;;;;;;;;;;;;;;;;5084795;28;20425;-68
2022/09/22 06:44:05;;;;;;;;;;;16.90;99.90;;;;;;5092047;28;20367;-68
2022/09/22 06:46:32;;;;;;;;;;;17.20;99.90;;;;;;5078225;28;19919;-68
2022/09/22 06:48:58;;;;;;;;;;;17.60;99.90;;;;;;5095937;28;19912;-69
2022/09/22 06:51:25;;;;;;;;;;;18.20;99.90;;;;;;5093765;28;19997;-68
2022/09/22 06:53:51;;;;;;;;;;;17.50;99.90;;;;;;5089561;28;19908;-68
2022/09/22 06:56:19;;;;;;;;;;;17.60;99.90;;;;;;5091453;28;19908;-68
2022/09/22 06:58:44;;;;;;;;;;;17.80;99.90;;;;;;5084935;28;19917;-68
2022/09/22 07:01:10;;;;;;;;;;;17.80;99.90;;;;;;5085727;28;19919;-68
2022/09/22 07:03:41;;;;;;;;;;;18.00;99.90;;;;;;5091270;28;19928;-68
2022/09/22 07:06:07;;;;;;;;;;;18.10;99.90;;;;;;5094296;28;19915;-69
2022/09/22 07:08:33;;;;;;;;;;;17.80;99.90;;;;;;5096120;28;19912;-69
2022/09/22 07:11:02;;;;;;;;;;;17.90;99.90;;;;;;5090815;28;20390;-68
2022/09/22 07:13:29;;;;;;;;;;;17.90;99.90;;;;;;5095617;28;19912;-69
2022/09/22 07:16:11;;;;;;;;;;;18.40;99.90;;;;;;5093470;28;20096;-69
2022/09/22 07:18:39;;;;;;;;;;;18.30;99.90;;;;;;5077083;28;19915;-68
2022/09/22 07:21:07;;;;;;;;;;;18.80;99.90;;;;;;5089052;28;20474;-69
2022/09/22 07:23:34;;;;;;;;;;;19.30;99.90;;;;;;5096038;28;19970;-69
2022/09/22 07:26:03;;;;;;;;;;;20.00;99.90;;;;;;5095336;28;19919;-69
2022/09/22 07:28:30;;;;;;;;;;;19.40;99.90;;;;;;5076102;28;19908;-68
2022/09/22 07:30:56;;;;;;;;;;;19.90;99.90;;;;;;5091380;28;19912;-69
2022/09/22 07:33:22;;;;;;;;;;;19.00;99.90;;;;;;5089197;28;19916;-67
2022/09/22 07:35:57;;;;;;;;;;;18.70;99.90;;;;;;5089397;28;19919;-69
2022/09/22 07:38:25;;;;;;;;;;;19.40;99.90;;;;;;5093804;28;20389;-68
2022/09/22 07:40:51;;;;;;;;;;;19.80;99.90;;;;;;5084517;28;20007;-69
2022/09/22 07:43:17;;;;;;;;;;;20.50;98.10;;;;;;5095294;28;20285;-69
2022/09/22 07:45:49;;;;;;;;;;;20.40;98.60;;;;;;5093583;28;19938;-68
2022/09/22 07:48:46;;;;;;;;;;;19.60;98.60;;;;;;5060080;28;20290;-67
2022/09/22 07:51:04;;;;;;;;;;;18.70;99.90;;;;;;5089726;28;19958;-69
2022/09/22 07:53:30;;;;;;;;;;;18.60;99.90;;;;;;5099275;28;20363;-69
2022/09/22 07:56:01;;;;;;;;;;;18.50;99.90;;;;;;5092177;28;20006;-69
2022/09/22 07:58:26;;;;;;;;;;;19.30;99.90;;;;;;5081835;28;20293;-67
2022/09/22 08:00:52;;;;;;;;;;;20.40;99.20;;;;;;5089245;28;19912;-69
2022/09/22 08:03:17;;;;;;;;;;;21.90;96.40;;;;;;5094074;28;20370;-67
2022/09/22 08:05:45;;;;;;;;;;;21.70;95.60;;;;;;5093874;28;20262;-69
2022/09/22 08:08:11;;;;;;;;;;;21.00;96.70;;;;;;5092998;28;20359;-68
2022/09/22 08:10:37;;;;;;;;;;;20.00;98.10;;;;;;5086006;28;20003;-69
2022/09/22 08:13:03;;;;;;;;;;;20.30;99.70;;;;;;5089069;28;19955;-68
2022/09/22 08:15:28;;;;;;;;;;;21.40;96.70;;;;;;5090519;28;20340;-69
2022/09/22 08:17:55;;;;;;;;;;;20.80;97.40;;;;;;5093060;28;19969;-68
2022/09/22 08:20:21;;;;;;;;;;;21.20;96.60;;;;;;5088860;28;19917;-66
2022/09/22 08:22:51;;;;;;;;;;;21.20;95.10;;;;;;5088106;28;19923;-69
2022/09/22 08:25:16;;;;;;;;;;;20.60;96.40;;;;;;5081863;28;19919;-68
2022/09/22 08:27:41;;;;;;;;;;;20.30;96.80;;;;;;5085404;28;19912;-69
2022/09/22 08:30:10;;;;;;;;;;;20.10;97.80;;;;;;5078870;28;19919;-67
2022/09/22 08:32:36;;;;;;;;;;;19.40;98.20;;;;;;5078428;28;19932;-67
2022/09/22 08:35:02;;;;;;;;;;;19.70;99.00;;;;;;5086104;28;19926;-69
2022/09/22 08:37:28;;;;;;;;;;;20.70;97.80;;;;;;5089559;28;19912;-69
2022/09/22 08:39:54;;;;;;;;;;;20.70;96.80;;;;;;5088912;28;19908;-69
2022/09/22 08:42:21;;;;;;;;;;;21.30;96.20;;;;;;5089407;28;20367;-68
2022/09/22 08:45:08;;;;;;;;;;;21.40;95.50;;;;;;5089395;28;20384;-69
2022/09/22 08:53:05;;;;;;;;;;;21.60;97.00;;;;;;5144950;27;19970;-69
2022/09/22 08:55:30;;;;;;;;;;;22.00;97.60;;;;;;5150854;27;19919;-69
2022/09/22 08:58:06;;;;;;;;;;;21.20;94.80;;;;;;5149646;27;19918;-69
2022/09/22 09:00:35;;;;;;;;;;;21.20;94.40;;;;;;5149418;27;19911;-67
2022/09/22 09:03:21;;;;;;;;;;;21.20;95.40;;;;;;5150807;27;19916;-67
2022/09/22 09:05:50;;;;;;;;;;;20.90;96.00;;;;;;5150484;27;20377;-68
2022/09/22 09:08:26;;;;;;;;;;;20.50;96.50;;;;;;5151828;27;19919;-68
2022/09/22 09:10:57;;;;;;;;;;;21.20;96.20;;;;;;5146419;27;20298;-67
2022/09/22 09:13:35;;;;;;;;;;;21.70;94.60;;;;;;5150043;27;19964;-66
2022/09/22 09:16:08;;;;;;;;;;;21.40;94.40;;;;;;5151618;27;20301;-67
2022/09/22 09:18:37;;;;;;;;;;;21.10;94.60;;;;;;5147865;27;19912;-68
2022/09/22 09:21:05;;;;;;;;;;;21.10;95.00;;;;;;5138995;27;19915;-67
2022/09/22 09:23:36;;;;;;;;;;;20.90;96.00;;;;;;5142089;27;20006;-67
2022/09/22 09:26:03;;;;;;;;;;;21.00;96.80;;;;;;5144018;27;19922;-68
2022/09/22 09:28:30;;;;;;;;;;;;;;;;;;5147104;27;19922;-67
2022/09/22 09:31:03;;;;;;;;;;;21.80;94.00;;;;;;5149005;27;19966;-67
2022/09/22 09:33:30;;;;;;;;;;;;;;;;;;5146437;27;20330;-68
2022/09/22 09:35:56;;;;;;;;;;;23.00;91.50;;;;;;5149634;27;20025;-67
2022/09/22 09:38:27;;;;;;;;;;;22.30;92.40;;;;;;5150924;27;19934;-67
2022/09/22 09:40:57;;;;;;;;;;;22.70;91.20;;;;;;5138760;27;19918;-68
2022/09/22 09:43:23;;;;;;;;;;;23.30;91.10;;;;;;5150062;27;19918;-68
2022/09/22 09:46:10;;;;;;;;;;;23.20;91.00;;;;;;5148406;27;19912;-68
2022/09/22 09:48:57;;;;;;;;;;;22.80;91.60;;;;;;5146486;27;19923;-68
2022/09/22 09:51:22;;;;;;;;;;;22.20;91.10;;;;;;5145964;27;19916;-68
2022/09/22 09:53:48;;;;;;;;;;;23.10;90.10;;;;;;5144676;27;19956;-68
2022/09/22 09:56:26;;;;;;;;;;;24.00;86.60;;;;;;5139595;27;19912;-67
2022/09/22 10:01:55;;;;;;;;;;;23.50;85.50;;;;;;5129564;27;19912;-67
2022/09/22 10:04:27;;;;;;;;;;;23.50;86.60;;;;;;5131140;27;19972;-67
2022/09/22 10:06:52;;;;;;;;;;;22.90;89.40;;;;;;5130207;27;19907;-67
2022/09/22 10:09:22;;;;;;;;;;;22.80;86.20;;;;;;5117483;27;19916;-68
2022/09/22 10:12:03;;;;;;;;;;;22.30;88.10;;;;;;5129136;27;19923;-67
2022/09/22 10:14:30;;;;;;;;;;;22.40;88.50;;;;;;5134244;27;20406;-67
2022/09/22 10:16:56;;;;;;;;;;;21.50;90.20;;;;;;5131907;27;19911;-68
2022/09/22 10:19:29;;;;;;;;;;;21.90;90.50;;;;;;5128131;27;19919;-68
2022/09/22 10:22:14;;;;;;;;;;;21.90;87.80;;;;;;5127678;27;19912;-68
2022/09/22 10:24:50;;;;;;;;;;;22.40;86.60;;;;;;5127931;27;19911;-68
2022/09/22 10:27:19;;;;;;;;;;;23.30;85.80;;;;;;5136184;27;20446;-69
2022/09/22 10:29:44;;;;;;;;;;;23.20;84.10;;;;;;5135271;27;19915;-68
2022/09/22 10:32:12;;;;;;;;;;;23.60;84.80;;;;;;5125558;27;19919;-68
2022/09/22 10:34:39;;;;;;;;;;;23.00;85.40;;;;;;5132759;27;19911;-68
2022/09/22 10:37:09;;;;;;;;;;;22.40;83.90;;;;;;5137346;27;19935;-67
2022/09/22 10:39:39;;;;;;;;;;;22.60;85.20;;;;;;5144649;27;19963;-68
2022/09/22 10:42:11;;;;;;;;;;;22.40;84.70;;;;;;5143067;27;19919;-68
2022/09/22 10:44:37;;;;;;;;;;;23.10;85.70;;;;;;5138332;27;20388;-68
2022/09/22 10:47:19;;;;;;;;;;;22.50;86.00;;;;;;5130569;27;20393;-68
2022/09/22 10:49:53;;;;;;;;;;;22.20;82.30;;;;;;5132275;27;20373;-66
2022/09/22 10:52:40;;;;;;;;;;;22.30;83.40;;;;;;5131061;27;19912;-67
2022/09/22 10:55:13;;;;;;;;;;;22.80;81.50;;;;;;5130044;27;19915;-67
2022/09/22 10:57:59;;;;;;;;;;;22.90;83.80;;;;;;5126032;27;19916;-68
2022/09/22 11:00:25;;;;;;;;;;;23.50;82.90;;;;;;5127432;27;19915;-67
2022/09/22 11:03:11;;;;;;;;;;;23.50;81.10;;;;;;5133240;27;19912;-68
2022/09/22 11:14:20;;;;;;;;;;;23.10;74.30;;;;;;5130828;27;19927;-67
2022/09/22 11:16:55;;;;;;;;;;;21.70;77.30;;;;;;5140495;27;20456;-68
2022/09/22 11:19:27;;;;;;;;;;;21.30;79.80;;;;;;5122933;27;19911;-68
2022/09/22 11:22:12;;;;;;;;;;;21.20;82.30;;;;;;5133923;27;19980;-68
2022/09/22 11:24:58;;;;;;;;;;;20.70;82.10;;;;;;5135364;27;20300;-68
2022/09/22 11:27:44;;;;;;;;;;;20.40;83.60;;;;;;5125624;27;19911;-68
2022/09/22 11:30:13;;;;;;;;;;;20.50;84.50;;;;;;5135278;27;19912;-68
2022/09/22 11:32:44;;;;;;;;;;;20.90;83.60;;;;;;5135253;27;20005;-67
2022/09/22 11:35:30;;;;;;;;;;;20.50;82.70;;;;;;5135724;27;19982;-68
2022/09/22 11:38:15;;;;;;;;;;;20.30;84.40;;;;;;5134865;27;20369;-68
2022/09/22 11:40:50;;;;;;;;;;;19.90;86.80;;;;;;5133910;27;19923;-67
2022/09/22 11:43:35;;;;;;;;;;;19.70;85.10;;;;;;5135396;27;19981;-68
2022/09/22 11:46:13;;;;;;;;;;;19.60;85.30;;;;;;5135010;27;19911;-67
2022/09/22 11:48:47;;;;;;;;;;;19.60;89.80;;;;;;5134394;27;20309;-68
2022/09/22 11:51:34;;;;;;;;;;;19.60;87.10;;;;;;5128145;27;19933;-66
2022/09/22 11:54:19;;;;;;;;;;;19.80;89.90;;;;;;5103762;27;20307;-68
2022/09/22 11:56:48;;;;;;;;;;;19.90;89.20;;;;;;5124868;27;19942;-67
2022/09/22 11:59:33;;;;;;;;;;;20.00;88.80;;;;;;5131828;27;19919;-67
2022/09/22 12:02:03;;;;;;;;;;;20.20;88.30;;;;;;5112570;27;19912;-68
2022/09/22 12:04:33;;;;;;;;;;;20.60;87.00;;;;;;5130997;27;20343;-68
2022/09/22 12:07:02;;;;;;;;;;;21.00;84.00;;;;;;5133553;27;19917;-67
2022/09/22 12:09:31;;;;;;;;;;;20.40;84.00;;;;;;5127890;27;20022;-68
2022/09/22 12:11:57;;;;;;;;;;;20.30;84.40;;;;;;5131203;27;19907;-67
2022/09/22 12:14:22;;;;;;;;;;;20.00;87.30;;;;;;5111868;27;19918;-66
2022/09/22 12:16:57;;;;;;;;;;;19.80;87.50;;;;;;5133136;27;19912;-68
2022/09/22 12:19:31;;;;;;;;;;;19.60;86.80;;;;;;5128670;27;19930;-67
2022/09/22 12:22:16;;;;;;;;;;;19.60;90.50;;;;;;5112555;27;19954;-68
2022/09/22 12:24:46;;;;;;;;;;;19.40;89.20;;;;;;5129102;27;19915;-69
2022/09/22 12:27:18;;;;;;;;;;;19.30;90.10;;;;;;5127608;27;19911;-68
2022/09/22 12:29:45;;;;;;;;;;;19.20;90.10;;;;;;5130757;27;19941;-67
2022/09/22 12:32:20;;;;;;;;;;;19.40;89.20;;;;;;5132789;27;20006;-68
2022/09/22 12:34:45;;;;;;;;;;;19.70;90.00;;;;;;5133290;27;20184;-70
2022/09/22 12:37:12;;;;;;;;;;;20.30;88.20;;;;;;5130302;27;19942;-67
2022/09/22 12:39:41;;;;;;;;;;;20.80;90.30;;;;;;5128940;27;19912;-69
2022/09/22 12:42:18;;;;;;;;;;;20.70;86.60;;;;;;5130510;27;19915;-67
2022/09/22 12:44:48;;;;;;;;;;;20.50;86.30;;;;;;5134763;27;19912;-67
2022/09/22 12:47:33;;;;;;;;;;;20.40;87.20;;;;;;5129419;27;19915;-67
2022/09/22 12:50:00;;;;;;;;;;;20.00;89.10;;;;;;5130236;28;19926;-67
2022/09/22 12:52:35;;;;;;;;;;;19.90;89.00;;;;;;5126982;27;19919;-68
2022/09/22 12:55:11;;;;;;;;;;;19.80;89.00;;;;;;5106126;28;19922;-67
2022/09/22 12:57:43;;;;;;;;;;;19.60;90.00;;;;;;5133647;28;19946;-66
2022/09/22 13:00:19;;;;;;;;;;;19.50;90.30;;;;;;5139360;27;19918;-67
2022/09/22 13:02:46;;;;;;;;;;;19.40;91.70;;;;;;5138456;27;19918;-67
2022/09/22 13:05:31;;;;;;;;;;;19.30;91.80;;;;;;5132413;28;19915;-69
2022/09/22 13:07:57;;;;;;;;;;;19.10;90.50;;;;;;5130813;28;19912;-67
2022/09/22 13:18:34;;;;;;;;;;;19.20;89.80;;;;;;5074155;28;19912;-68
2022/09/22 13:21:01;;;;;;;;;;;19.40;91.00;;;;;;5059434;28;20330;-67
2022/09/22 13:23:26;;;;;;;;;;;19.90;92.80;;;;;;5058149;28;19913;-69
2022/09/22 13:25:52;;;;;;;;;;;19.80;90.80;;;;;;5057685;28;19909;-69
2022/09/22 13:28:19;;;;;;;;;;;19.70;90.90;;;;;;5057714;28;19917;-68
2022/09/22 13:30:45;;;;;;;;;;;19.50;90.30;;;;;;5061462;28;19913;-68
2022/09/22 13:33:19;;;;;;;;;;;19.40;90.90;;;;;;5055533;28;19909;-66
2022/09/22 13:35:44;;;;;;;;;;;19.30;90.40;;;;;;5060150;28;19955;-68
2022/09/22 13:38:12;;;;;;;;;;;19.20;91.00;;;;;;5061380;28;19963;-68
2022/09/22 13:40:37;;;;;;;;;;;19.50;91.90;;;;;;5053298;28;20290;-68
2022/09/22 13:43:05;;;;;;;;;;;19.80;90.40;;;;;;5058757;28;19909;-68
2022/09/22 13:45:31;;;;;;;;;;;19.70;89.20;;;;;;5052925;28;19913;-68
2022/09/22 13:48:01;;;;;;;;;;;19.60;91.00;;;;;;5056229;28;19920;-67
2022/09/22 13:50:26;;;;;;;;;;;19.50;90.70;;;;;;5056843;28;19948;-68
2022/09/22 13:52:52;;;;;;;;;;;19.60;85.40;;;;;;5056268;28;19928;-68
2022/09/22 13:55:34;;;;;;;;;;;19.60;87.30;;;;;;5049167;28;20004;-68
2022/09/22 13:58:01;;;;;;;;;;;19.60;87.30;;;;;;5052404;28;19921;-67
2022/09/22 14:00:33;;;;;;;;;;;19.70;87.60;;;;;;5044903;28;19917;-68
2022/09/22 14:03:01;;;;;;;;;;;19.90;85.30;;;;;;5063461;28;20014;-68
2022/09/22 14:05:29;;;;;;;;;;;19.70;84.90;;;;;;5041230;28;20302;-68
2022/09/22 14:07:55;;;;;;;;;;;19.90;86.80;;;;;;5044197;28;20342;-67
2022/09/22 14:10:21;;;;;;;;;;;19.90;86.00;;;;;;5048730;28;20360;-68
2022/09/22 14:12:47;;;;;;;;;;;19.80;85.10;;;;;;5050145;28;19919;-68
2022/09/22 14:15:32;;;;;;;;;;;19.60;87.20;;;;;;5047497;28;20421;-68
2022/09/22 14:17:58;;;;;;;;;;;19.70;88.20;;;;;;5064636;28;19934;-68
2022/09/22 14:20:25;;;;;;;;;;;19.50;86.70;;;;;;5067908;28;19909;-68
2022/09/22 14:22:51;;;;;;;;;;;19.10;88.40;;;;;;5065725;28;19958;-68
2022/09/22 14:25:18;;;;;;;;;;;19.20;90.10;;;;;;5087467;28;19955;-68
2022/09/22 14:27:47;;;;;;;;;;;19.20;88.50;;;;;;5083539;28;19917;-68
2022/09/22 14:30:16;;;;;;;;;;;19.20;89.20;;;;;;5062632;28;19915;-67
2022/09/22 14:32:46;;;;;;;;;;;19.10;90.30;;;;;;5038164;28;20279;-68
2022/09/22 14:35:31;;;;;;;;;;;19.20;91.30;;;;;;5034797;28;19947;-68
2022/09/22 14:37:58;;;;;;;;;;;19.30;90.70;;;;;;5049528;28;20421;-68
2022/09/22 14:40:25;;;;;;;;;;;19.50;90.20;;;;;;5055642;28;20355;-68
2022/09/22 14:42:55;;;;;;;;;;;19.60;90.00;;;;;;5055884;28;19967;-68
2022/09/22 14:45:21;;;;;;;;;;;19.80;88.00;;;;;;5061798;28;19920;-68
2022/09/22 14:48:07;;;;;;;;;;;19.90;86.90;;;;;;5042381;28;20291;-68
2022/09/22 14:50:36;;;;;;;;;;;19.60;87.30;;;;;;5059891;28;20374;-68
2022/09/22 14:53:07;;;;;;;;;;;19.20;89.40;;;;;;5052872;28;20420;-68
2022/09/22 14:55:35;;;;;;;;;;;19.00;89.70;;;;;;5054661;28;19908;-67
2022/09/22 14:58:03;;;;;;;;;;;19.20;88.70;;;;;;5040246;28;19917;-68
2022/09/22 15:03:17;;;;;;;;;;;19.20;89.20;;;;;;5074613;28;19908;-67
2022/09/22 15:05:44;;;;;;;;;;;19.10;90.10;;;;;;5060229;28;20510;-67
2022/09/22 15:08:14;;;;;;;;;;;18.90;90.30;;;;;;5073456;28;20321;-68